Time;durP1;ratioP1;P1;durP2;ratioP2;P2;SDS_P1;SDS_P2;PMS_P1;PMS_P2;Temp;Humidity;BMP_temperature;BMP_pressure;BME280_temperature;BME280_humidity;BME280_pressure;Samples;Min_cycle;Max_cycle;Signal;HPM_P1;HPM_P2
2022/10/02 00:02:41;;;;;;;7.97;1.52;;;11.10;99.90;;;;;;5037183;28;20040;-80
2022/10/02 00:05:29;;;;;;;3.13;1.00;;;11.20;99.90;;;;;;5053702;28;20044;-80
2022/10/02 00:08:03;;;;;;;5.70;1.23;;;11.10;99.90;;;;;;5038560;28;20133;-80
2022/10/02 00:10:40;;;;;;;3.67;1.23;;;11.10;99.90;;;;;;5047825;28;20037;-80
2022/10/02 00:13:14;;;;;;;5.95;1.35;;;11.10;99.90;;;;;;5046939;28;20040;-80
2022/10/02 00:15:41;;;;;;;4.97;1.13;;;11.10;99.90;;;;;;5045914;28;20413;-80
2022/10/02 00:18:17;;;;;;;4.57;2.20;;;11.20;99.90;;;;;;5047611;28;20049;-80
2022/10/02 00:21:08;;;;;;;5.85;1.55;;;11.20;99.90;;;;;;5060133;28;20051;-80
2022/10/02 00:23:52;;;;;;;7.53;2.10;;;11.30;99.90;;;;;;5060788;28;20033;-80
2022/10/02 00:26:38;;;;;;;7.60;2.78;;;11.30;99.90;;;;;;5060112;28;20051;-82
2022/10/02 00:29:07;;;;;;;3.75;2.40;;;11.30;99.90;;;;;;5059115;28;20041;-82
2022/10/02 00:31:46;;;;;;;3.40;1.80;;;11.30;99.90;;;;;;5048324;28;20041;-82
2022/10/02 00:34:21;;;;;;;3.95;2.25;;;11.30;99.90;;;;;;5072689;28;20047;-82
2022/10/02 00:37:00;;;;;;;7.73;2.03;;;11.30;99.90;;;;;;5055682;28;20051;-82
2022/10/02 00:39:37;;;;;;;3.67;2.22;;;11.30;99.90;;;;;;5041758;28;20280;-82
2022/10/02 00:42:15;;;;;;;7.28;2.30;;;11.30;99.90;;;;;;5049016;28;20068;-82
2022/10/02 00:44:59;;;;;;;6.45;2.30;;;11.30;99.90;;;;;;5057286;28;20041;-82
2022/10/02 00:47:58;;;;;;;5.18;1.70;;;11.30;99.90;;;;;;5039590;28;20486;-82
2022/10/02 00:50:29;;;;;;;2.95;1.33;;;11.20;99.90;;;;;;5052033;28;20041;-82
2022/10/02 00:53:19;;;;;;;4.47;1.30;;;11.20;99.90;;;;;;5071034;28;20040;-82
2022/10/02 00:59:11;;;;;;;3.65;0.80;;;11.20;99.90;;;;;;5052394;28;20045;-80
2022/10/02 01:01:46;;;;;;;3.20;1.10;;;11.20;99.90;;;;;;5042630;28;20033;-80
2022/10/02 01:04:26;;;;;;;1.90;0.65;;;11.20;99.90;;;;;;5081367;28;20080;-80
2022/10/02 01:06:51;;;;;;;6.70;1.27;;;11.20;99.90;;;;;;5040126;28;20032;-80
2022/10/02 01:09:17;;;;;;;7.95;2.22;;;11.20;99.90;;;;;;5055481;28;20170;-80
2022/10/02 01:11:43;;;;;;;5.53;1.00;;;11.20;99.90;;;;;;5059902;28;20132;-80
2022/10/02 01:14:09;;;;;;;5.50;1.88;;;11.20;99.90;;;;;;5057269;28;20045;-80
2022/10/02 01:16:35;;;;;;;4.88;1.63;;;11.20;99.90;;;;;;5048672;28;20052;-82
2022/10/02 01:19:01;;;;;;;4.20;1.30;;;11.20;99.90;;;;;;5018884;28;20041;-81
2022/10/02 01:21:43;;;;;;;6.03;1.27;;;11.20;99.90;;;;;;5053747;28;20043;-82
2022/10/02 01:24:18;;;;;;;4.32;1.25;;;11.30;99.90;;;;;;5038896;28;20048;-82
2022/10/02 01:26:43;;;;;;;4.32;1.13;;;11.20;99.90;;;;;;5070198;28;20390;-82
2022/10/02 01:29:09;;;;;;;4.57;1.40;;;11.20;99.90;;;;;;5039202;28;20127;-82
2022/10/02 01:31:35;;;;;;;4.85;1.23;;;11.30;99.90;;;;;;5048110;28;20055;-82
2022/10/02 01:34:02;;;;;;;3.28;0.80;;;11.30;99.90;;;;;;5058681;28;20415;-81
2022/10/02 01:36:29;;;;;;;2.85;0.90;;;11.30;99.90;;;;;;5037406;28;20029;-81
2022/10/02 01:38:56;;;;;;;5.82;1.17;;;11.30;99.90;;;;;;5051702;28;20128;-81
2022/10/02 01:41:22;;;;;;;5.22;1.15;;;11.30;99.90;;;;;;5046380;28;20390;-81
2022/10/02 01:43:51;;;;;;;1.85;0.68;;;11.30;99.90;;;;;;5035494;28;20028;-81
2022/10/02 01:46:20;;;;;;;3.67;0.98;;;11.30;99.90;;;;;;5030970;28;20527;-81
2022/10/02 01:49:26;;;;;;;3.40;0.82;;;11.30;99.90;;;;;;5061971;28;20051;-81
2022/10/02 01:52:18;;;;;;;7.45;1.00;;;11.20;99.90;;;;;;5060510;28;20102;-81
2022/10/02 01:55:05;;;;;;;3.00;0.60;;;11.20;99.90;;;;;;5050823;28;20036;-81
2022/10/02 01:58:00;;;;;;;4.70;1.00;;;11.10;99.90;;;;;;5043598;28;20140;-81
2022/10/02 02:00:37;;;;;;;3.33;1.02;;;11.10;99.90;;;;;;5042943;28;20041;-81
2022/10/02 02:03:28;;;;;;;2.33;0.98;;;11.00;99.90;;;;;;5048669;28;20036;-81
2022/10/02 02:06:21;;;;;;;2.47;1.13;;;11.00;99.90;;;;;;5051499;28;20045;-81
2022/10/02 02:08:55;;;;;;;8.43;1.83;;;11.00;99.90;;;;;;5028721;28;20041;-82
2022/10/02 02:11:22;;;;;;;3.53;0.73;;;11.00;99.90;;;;;;5052507;28;20044;-82
2022/10/02 02:14:01;;;;;;;10.50;0.90;;;10.90;99.90;;;;;;5057155;28;20034;-82
2022/10/02 02:16:42;;;;;;;1.83;0.90;;;10.90;99.90;;;;;;5052193;28;20115;-82
2022/10/02 02:19:29;;;;;;;5.50;1.58;;;11.00;99.90;;;;;;5052660;28;20072;-82
2022/10/02 02:22:04;;;;;;;3.35;1.20;;;11.00;99.90;;;;;;5052934;28;20147;-82
2022/10/02 02:24:41;;;;;;;1.88;0.90;;;11.10;99.90;;;;;;5063462;28;20098;-80
2022/10/02 02:27:12;;;;;;;1.35;0.70;;;11.10;99.90;;;;;;5050752;28;20045;-80
2022/10/02 02:29:41;;;;;;;4.63;1.02;;;11.10;99.90;;;;;;5033131;28;20079;-80
2022/10/02 02:32:12;;;;;;;2.88;0.75;;;11.20;99.90;;;;;;5035609;28;20048;-80
2022/10/02 02:34:43;;;;;;;8.52;1.45;;;11.20;99.90;;;;;;5040822;28;20047;-80
2022/10/02 02:37:17;;;;;;;3.95;1.20;;;11.20;99.90;;;;;;5051037;28;20124;-80
2022/10/02 02:39:56;;;;;;;5.72;1.00;;;11.20;99.90;;;;;;5051807;28;20025;-81
2022/10/02 02:42:25;;;;;;;5.70;1.58;;;11.10;99.90;;;;;;5055673;28;20032;-81
2022/10/02 02:44:54;;;;;;;3.05;1.10;;;11.10;99.90;;;;;;5050914;28;20045;-81
2022/10/02 02:47:27;;;;;;;3.03;0.70;;;11.20;99.90;;;;;;5033368;28;20446;-81
2022/10/02 02:50:01;;;;;;;3.05;1.10;;;11.30;99.90;;;;;;5066366;28;20475;-81
2022/10/02 02:52:56;;;;;;;6.53;1.13;;;11.30;99.90;;;;;;5037949;28;20127;-81
2022/10/02 02:55:29;;;;;;;2.95;1.15;;;11.50;99.90;;;;;;5063523;28;20060;-81
2022/10/02 02:58:36;;;;;;;6.57;1.08;;;11.50;99.90;;;;;;5047147;28;20510;-80
2022/10/02 03:01:02;;;;;;;7.53;1.45;;;11.50;99.90;;;;;;5037490;28;20411;-80
2022/10/02 03:03:28;;;;;;;4.90;1.25;;;11.50;99.90;;;;;;5032848;28;20047;-80
2022/10/02 03:06:20;;;;;;;4.38;1.00;;;11.50;99.90;;;;;;5051678;28;20073;-80
2022/10/02 03:08:49;;;;;;;4.55;1.58;;;11.50;99.90;;;;;;5047422;28;20127;-80
2022/10/02 03:11:36;;;;;;;2.45;0.88;;;11.70;99.90;;;;;;5051256;28;20048;-80
2022/10/02 03:14:26;;;;;;;5.93;0.82;;;11.50;99.90;;;;;;5051940;28;20041;-81
2022/10/02 03:17:19;;;;;;;2.42;1.15;;;11.60;99.90;;;;;;5062969;28;20144;-81
2022/10/02 03:20:24;;;;;;;3.75;1.05;;;11.60;99.90;;;;;;5058464;28;20154;-81
2022/10/02 03:22:56;;;;;;;1.85;0.70;;;11.70;99.90;;;;;;5089355;28;20494;-81
2022/10/02 03:25:48;;;;;;;2.70;1.15;;;11.70;99.90;;;;;;5071961;28;20033;-81
2022/10/02 03:28:35;;;;;;;3.85;0.60;;;11.70;99.90;;;;;;5076639;28;20143;-81
2022/10/02 03:31:02;;;;;;;3.55;0.80;;;11.70;99.90;;;;;;5065227;28;20047;-81
2022/10/02 03:33:30;;;;;;;4.07;1.10;;;11.70;99.90;;;;;;5056748;28;20045;-82
2022/10/02 03:35:56;;;;;;;7.25;1.15;;;11.70;99.90;;;;;;5055281;28;20047;-82
2022/10/02 03:38:25;;;;;;;2.33;1.00;;;11.60;99.90;;;;;;5023401;28;20402;-82
2022/10/02 03:40:56;;;;;;;3.53;1.20;;;11.60;99.90;;;;;;5052429;28;20033;-82
2022/10/02 03:43:26;;;;;;;4.78;1.50;;;11.50;99.90;;;;;;5059824;28;20037;-82
2022/10/02 03:45:51;;;;;;;3.47;1.00;;;11.50;99.90;;;;;;5042562;28;20452;-82
2022/10/02 03:48:17;;;;;;;4.15;1.45;;;11.40;99.90;;;;;;5038739;28;20091;-82
2022/10/02 03:50:44;;;;;;;3.55;0.98;;;11.30;99.90;;;;;;5053155;28;20041;-82
2022/10/02 03:53:19;;;;;;;5.65;1.13;;;11.30;99.90;;;;;;5054153;28;20110;-82
2022/10/02 03:56:11;;;;;;;6.50;1.27;;;11.30;99.90;;;;;;5054079;28;20544;-81
2022/10/02 03:58:44;;;;;;;3.67;0.70;;;11.20;99.90;;;;;;5045269;28;20053;-82
2022/10/02 04:01:21;;;;;;;2.42;1.00;;;11.10;99.90;;;;;;5053463;28;20053;-81
2022/10/02 04:03:56;;;;;;;4.07;1.17;;;11.00;99.90;;;;;;5065003;28;20398;-80
2022/10/02 04:06:34;;;;;;;2.22;0.70;;;11.00;99.90;;;;;;5055635;28;20036;-80
2022/10/02 04:09:25;;;;;;;2.35;0.70;;;11.00;99.90;;;;;;5069949;28;20040;-80
2022/10/02 04:12:07;;;;;;;6.65;1.25;;;10.90;99.90;;;;;;5060630;28;20483;-80
2022/10/02 04:14:59;;;;;;;3.25;0.82;;;10.90;99.90;;;;;;5051297;28;20068;-80
2022/10/02 04:18:06;;;;;;;4.43;1.17;;;10.90;99.90;;;;;;5026217;28;20099;-80
2022/10/02 04:20:40;;;;;;;2.97;0.93;;;10.80;99.90;;;;;;5039349;28;20037;-82
2022/10/02 04:23:11;;;;;;;4.13;0.80;;;10.80;99.90;;;;;;5047201;28;20052;-82
2022/10/02 04:25:42;;;;;;;4.22;1.40;;;10.80;99.90;;;;;;5036691;28;20037;-82
2022/10/02 04:28:14;;;;;;;4.85;1.58;;;10.70;99.90;;;;;;5047510;28;20043;-82
2022/10/02 04:30:40;;;;;;;4.80;0.80;;;10.70;99.90;;;;;;5058253;28;20399;-82
2022/10/02 04:33:11;;;;;;;5.30;1.35;;;10.70;99.90;;;;;;5035374;28;20052;-82
2022/10/02 04:36:00;;;;;;;2.05;0.70;;;10.60;99.90;;;;;;5051160;28;20036;-82
2022/10/02 04:39:00;;;;;;;6.50;1.33;;;10.60;99.90;;;;;;5072429;28;20037;-82
2022/10/02 04:41:43;;;;;;;3.45;0.82;;;10.50;99.90;;;;;;5019498;28;20044;-82
2022/10/02 04:44:48;;;;;;;5.47;0.73;;;10.50;99.90;;;;;;5049693;28;20049;-82
2022/10/02 04:47:23;;;;;;;1.75;0.90;;;10.40;99.90;;;;;;5063179;28;20085;-82
2022/10/02 04:49:51;;;;;;;1.33;0.55;;;10.40;99.90;;;;;;5049346;28;20049;-82
2022/10/02 04:52:32;;;;;;;10.85;1.60;;;10.40;99.90;;;;;;5053594;28;20045;-82
2022/10/02 04:55:20;;;;;;;5.35;1.27;;;10.30;99.90;;;;;;5057580;28;20043;-81
2022/10/02 04:58:14;;;;;;;6.03;1.08;;;10.30;99.90;;;;;;5053474;28;20057;-81
2022/10/02 05:00:48;;;;;;;3.65;0.75;;;10.30;99.90;;;;;;5054208;28;20045;-81
2022/10/02 05:03:23;;;;;;;3.53;0.82;;;10.30;99.90;;;;;;5053495;28;20120;-81
2022/10/02 05:05:54;;;;;;;4.47;1.30;;;10.20;99.90;;;;;;5064233;28;20068;-81
2022/10/02 05:08:29;;;;;;;1.75;0.65;;;10.20;99.90;;;;;;5040372;28;20441;-81
2022/10/02 05:11:07;;;;;;;8.82;1.27;;;10.10;99.90;;;;;;5062803;28;20036;-81
2022/10/02 05:14:05;;;;;;;3.22;0.80;;;10.10;99.90;;;;;;5062159;28;20037;-82
2022/10/02 05:16:40;;;;;;;6.38;1.38;;;10.10;99.90;;;;;;5050361;28;20083;-81
2022/10/02 05:19:37;;;;;;;4.13;0.65;;;10.20;99.90;;;;;;5045613;28;20044;-82
2022/10/02 05:22:20;;;;;;;2.97;0.83;;;10.20;99.90;;;;;;5083390;28;20033;-81
2022/10/02 05:24:45;;;;;;;4.63;0.60;;;10.20;99.90;;;;;;5037726;28;20045;-81
2022/10/02 05:27:14;;;;;;;4.03;1.08;;;10.20;99.90;;;;;;5052966;28;20105;-81
2022/10/02 05:29:53;;;;;;;4.78;0.70;;;10.20;99.90;;;;;;5057396;28;20049;-81
2022/10/02 05:32:24;;;;;;;3.13;0.63;;;10.20;99.90;;;;;;5038193;28;20383;-81
2022/10/02 05:35:30;;;;;;;5.30;1.85;;;10.10;99.90;;;;;;5052786;28;20135;-81
2022/10/02 05:38:26;;;;;;;4.53;1.42;;;10.20;99.90;;;;;;5051972;28;20037;-82
2022/10/02 05:41:04;;;;;;;7.55;1.17;;;10.10;99.90;;;;;;5051718;28;20037;-81
2022/10/02 05:43:41;;;;;;;3.30;0.90;;;10.10;99.90;;;;;;5052843;28;20033;-81
2022/10/02 05:46:13;;;;;;;6.60;1.63;;;10.10;99.90;;;;;;5064945;28;20039;-81
2022/10/02 05:48:53;;;;;;;5.53;0.90;;;10.10;99.90;;;;;;5033301;28;20098;-81
2022/10/02 05:51:39;;;;;;;5.18;1.48;;;10.80;99.90;;;;;;5035665;28;20036;-81
2022/10/02 05:54:30;;;;;;;4.32;1.10;;;10.20;99.90;;;;;;5053723;28;20134;-81
2022/10/02 05:57:12;;;;;;;4.38;0.88;;;10.20;99.90;;;;;;5052865;28;20063;-81
2022/10/02 05:59:49;;;;;;;4.28;1.10;;;10.30;99.90;;;;;;5051816;28;20103;-81
2022/10/02 06:02:25;;;;;;;6.10;1.70;;;10.30;99.90;;;;;;5052258;28;20560;-82
2022/10/02 06:04:54;;;;;;;;;;;10.40;99.90;;;;;;5051029;28;20083;-82
2022/10/02 06:07:20;;;;;;;3.70;1.20;;;10.40;99.90;;;;;;5052268;28;20011;-81
2022/10/02 06:10:05;;;;;;;1.30;0.75;;;10.40;99.90;;;;;;5052263;28;20111;-82
2022/10/02 06:12:40;;;;;;;4.80;1.30;;;10.50;99.90;;;;;;5043777;28;20049;-82
2022/10/02 06:15:35;;;;;;;4.85;0.93;;;10.50;99.90;;;;;;5063128;28;20452;-82
2022/10/02 06:18:08;;;;;;;4.47;0.77;;;10.60;99.90;;;;;;5053043;28;20049;-81
2022/10/02 06:20:43;;;;;;;7.05;1.23;;;10.70;99.90;;;;;;5039952;28;20037;-82
2022/10/02 06:23:28;;;;;;;5.13;1.30;;;10.80;99.90;;;;;;5059327;28;20045;-82
2022/10/02 06:25:59;;;;;;;10.85;1.83;;;11.20;99.90;;;;;;5049972;28;20116;-82
2022/10/02 06:28:37;;;;;;;3.20;1.33;;;11.80;99.90;;;;;;5049550;28;20041;-82
2022/10/02 06:31:19;;;;;;;2.63;0.60;;;12.20;99.90;;;;;;5050218;28;20091;-82
2022/10/02 06:33:45;;;;;;;4.05;1.10;;;12.50;99.90;;;;;;5050220;28;20059;-81
2022/10/02 06:36:29;;;;;;;8.65;1.40;;;12.80;99.90;;;;;;5052306;28;20040;-81
2022/10/02 06:39:14;;;;;;;6.75;1.27;;;13.10;99.90;;;;;;5059315;28;20051;-82
2022/10/02 06:41:47;;;;;;;1.73;0.73;;;13.30;99.90;;;;;;5052461;28;20068;-82
2022/10/02 06:44:22;;;;;;;4.57;1.90;;;13.40;99.90;;;;;;5081706;28;20033;-82
2022/10/02 06:47:14;;;;;;;4.43;1.30;;;13.50;99.90;;;;;;5042687;28;20033;-82
2022/10/02 06:50:15;;;;;;;5.28;1.45;;;13.30;99.90;;;;;;5009639;28;20041;-80
2022/10/02 06:53:02;;;;;;;3.05;0.90;;;13.10;99.90;;;;;;5023024;28;20052;-80
2022/10/02 06:55:50;;;;;;;2.92;1.02;;;12.90;99.90;;;;;;5050212;28;20037;-80
2022/10/02 06:58:35;;;;;;;3.80;1.13;;;12.80;99.90;;;;;;5070848;23;20414;-81
2022/10/02 07:01:25;;;;;;;2.95;0.88;;;12.70;99.90;;;;;;5052460;28;20499;-80
2022/10/02 07:04:06;;;;;;;3.58;1.40;;;12.60;99.90;;;;;;5069126;28;20039;-80
2022/10/02 07:06:54;;;;;;;5.28;0.90;;;12.50;99.90;;;;;;5071471;28;20048;-81
2022/10/02 07:09:43;;;;;;;7.63;2.38;;;12.50;99.90;;;;;;5071374;28;20044;-80
2022/10/02 07:12:33;;;;;;;2.08;1.10;;;12.40;99.90;;;;;;5051588;28;20123;-81
2022/10/02 07:15:24;;;;;;;4.18;0.82;;;12.50;99.90;;;;;;5054357;28;20041;-80
2022/10/02 07:17:52;;;;;;;4.68;0.80;;;12.60;99.90;;;;;;5000745;28;20124;-81
2022/10/02 07:20:24;;;;;;;5.45;0.85;;;13.20;99.90;;;;;;5052172;28;20372;-81
2022/10/02 07:23:15;;;;;;;9.18;1.20;;;14.10;99.90;;;;;;5051775;28;20033;-81
2022/10/02 07:25:50;;;;;;;3.63;1.05;;;14.90;99.90;;;;;;5051839;28;20045;-81
2022/10/02 07:28:42;;;;;;;2.50;1.15;;;15.30;99.90;;;;;;5048545;28;20551;-82
2022/10/02 07:31:32;;;;;;;6.30;1.27;;;15.40;99.90;;;;;;5055109;28;20503;-81
2022/10/02 07:34:40;;;;;;;3.25;1.58;;;15.10;99.90;;;;;;5071692;28;20508;-81
2022/10/02 07:37:28;;;;;;;5.95;1.08;;;14.80;99.90;;;;;;5071663;28;20044;-81
2022/10/02 07:40:09;;;;;;;2.75;1.50;;;15.40;99.90;;;;;;5055256;28;20043;-82
2022/10/02 07:43:00;;;;;;;2.60;0.60;;;15.90;99.90;;;;;;5071992;28;20052;-82
2022/10/02 07:45:48;;;;;;;3.45;1.00;;;16.20;99.90;;;;;;5070674;28;20483;-82
2022/10/02 07:48:34;;;;;;;5.47;0.90;;;16.10;99.90;;;;;;5038830;28;20068;-82
2022/10/02 07:54:30;;;;;;;4.53;1.70;;;17.50;99.90;;;;;;5072253;28;20037;-82
2022/10/02 07:57:01;;;;;;;4.63;1.80;;;19.30;99.90;;;;;;5053188;28;20076;-82
2022/10/02 07:59:30;;;;;;;2.78;0.90;;;20.90;99.90;;;;;;5055018;28;20052;-82
2022/10/02 08:01:57;;;;;;;6.45;1.30;;;22.40;99.90;;;;;;5071620;28;20048;-82
2022/10/02 08:04:30;;;;;;;7.68;1.88;;;23.20;99.90;;;;;;5072681;28;20040;-82
2022/10/02 08:07:00;;;;;;;1.88;1.08;;;23.00;99.90;;;;;;5074621;28;20040;-82
2022/10/02 08:09:42;;;;;;;4.25;1.25;;;22.40;99.90;;;;;;5070445;28;20068;-82
2022/10/02 08:12:27;;;;;;;3.55;1.25;;;21.20;99.90;;;;;;5053646;28;20068;-82
2022/10/02 08:14:55;;;;;;;11.98;1.42;;;20.00;99.90;;;;;;5061256;28;20092;-81
2022/10/02 08:17:42;;;;;;;5.38;1.20;;;19.00;99.90;;;;;;5057154;28;20119;-81
2022/10/02 08:20:26;;;;;;;6.85;2.08;;;18.40;99.90;;;;;;5075565;28;20358;-81
2022/10/02 08:23:20;;;;;;;6.35;1.67;;;17.90;99.90;;;;;;5087421;28;20053;-81
2022/10/02 08:26:01;;;;;;;3.42;1.40;;;18.20;99.90;;;;;;5096089;28;20439;-80
2022/10/02 08:28:43;;;;;;;4.00;1.40;;;19.40;99.90;;;;;;5073209;28;20044;-81
2022/10/02 08:31:11;;;;;;;6.20;1.90;;;20.80;99.90;;;;;;5056282;28;20036;-82
2022/10/02 08:33:38;;;;;;;7.47;1.27;;;21.90;99.90;;;;;;5056409;28;20036;-82
2022/10/02 08:36:39;;;;;;;5.10;1.27;;;22.40;99.90;;;;;;5071118;28;20127;-82
2022/10/02 08:39:27;;;;;;;6.82;1.35;;;22.00;99.90;;;;;;5056782;28;20116;-82
2022/10/02 08:42:03;;;;;;;4.10;1.10;;;21.10;99.90;;;;;;5072095;28;20086;-82
2022/10/02 08:45:01;;;;;;;2.38;1.17;;;20.30;99.90;;;;;;5055157;28;20055;-82
2022/10/02 08:47:58;;;;;;;5.35;1.42;;;19.90;99.90;;;;;;5070656;28;20044;-82
2022/10/02 08:50:36;;;;;;;10.73;1.35;;;19.60;99.90;;;;;;5071907;28;20127;-82
2022/10/02 08:53:50;;;;;;;4.45;1.58;;;19.80;99.90;;;;;;5073158;28;20043;-82
2022/10/02 08:56:50;;;;;;;4.65;1.27;;;20.20;99.90;;;;;;5056045;28;20040;-84
2022/10/02 08:59:54;;;;;;;4.20;1.13;;;21.20;99.90;;;;;;5071649;28;20127;-84
2022/10/02 09:02:26;;;;;;;2.50;1.10;;;22.90;99.90;;;;;;5040460;28;20194;-84
2022/10/02 09:05:29;;;;;;;4.30;1.00;;;24.10;98.50;;;;;;5057673;28;20502;-84
2022/10/02 09:08:26;;;;;;;5.70;1.25;;;25.00;98.30;;;;;;5056301;28;20037;-84
2022/10/02 09:11:14;;;;;;;3.28;1.30;;;24.60;96.40;;;;;;5074966;28;20040;-84
2022/10/02 09:14:01;;;;;;;4.10;1.63;;;23.30;97.00;;;;;;5074660;28;20113;-84
2022/10/02 09:17:12;;;;;;;2.55;1.08;;;22.10;99.10;;;;;;5072472;28;20048;-81
2022/10/02 09:19:38;;;;;;;2.88;0.90;;;20.70;99.90;;;;;;5071760;28;20537;-81
2022/10/02 09:22:32;;;;;;;7.22;1.40;;;19.80;99.90;;;;;;5055190;28;20048;-81
2022/10/02 09:24:58;;;;;;;4.47;1.25;;;18.90;99.90;;;;;;5070058;28;20075;-81
2022/10/02 09:28:03;;;;;;;3.28;1.17;;;18.40;99.90;;;;;;5054588;28;20425;-80
2022/10/02 09:30:49;;;;;;;6.25;1.67;;;18.10;99.90;;;;;;5070423;28;20036;-81
2022/10/02 09:33:38;;;;;;;4.95;1.05;;;19.50;99.90;;;;;;5072486;28;20040;-81
2022/10/02 09:36:10;;;;;;;3.05;0.75;;;21.60;99.90;;;;;;5072749;28;20037;-81
2022/10/02 09:39:03;;;;;;;5.78;1.30;;;23.10;99.90;;;;;;5071376;28;20040;-81
2022/10/02 09:41:39;;;;;;;6.28;1.60;;;24.50;98.40;;;;;;5069370;28;20418;-81
2022/10/02 09:44:27;;;;;;;8.75;1.67;;;25.80;94.10;;;;;;5058603;28;20059;-81
2022/10/02 09:46:52;;;;;;;5.82;1.15;;;26.10;93.00;;;;;;5072025;28;20081;-81
2022/10/02 09:49:18;;;;;;;2.45;1.10;;;26.20;91.50;;;;;;5072126;28;20033;-81
2022/10/02 09:52:05;;;;;;;4.78;1.25;;;26.40;91.30;;;;;;5070914;28;20040;-81
2022/10/02 09:54:40;;;;;;;3.35;0.88;;;26.40;91.90;;;;;;5072462;28;20036;-81
2022/10/02 09:57:29;;;;;;;2.60;0.95;;;25.80;90.70;;;;;;5071485;28;20139;-80
2022/10/02 10:00:16;;;;;;;5.45;1.38;;;24.40;91.50;;;;;;5052045;28;20041;-80
2022/10/02 10:03:13;;;;;;;6.75;1.67;;;23.00;93.30;;;;;;5052807;28;20041;-80
2022/10/02 10:06:06;;;;;;;3.03;1.05;;;21.70;95.30;;;;;;5054002;28;20040;-80
2022/10/02 10:08:57;;;;;;;6.10;1.42;;;21.20;97.50;;;;;;5053953;28;20075;-80
2022/10/02 10:11:55;;;;;;;7.20;1.05;;;20.90;96.50;;;;;;5053281;28;20044;-81
2022/10/02 10:14:54;;;;;;;3.15;1.05;;;20.50;97.70;;;;;;5038308;28;20059;-80
2022/10/02 10:17:44;;;;;;;6.40;1.58;;;20.10;98.50;;;;;;5053691;28;20041;-80
2022/10/02 10:20:35;;;;;;;4.82;1.05;;;19.60;98.80;;;;;;5067695;28;20047;-80
2022/10/02 10:23:25;;;;;;;5.65;0.90;;;19.10;99.90;;;;;;5070977;28;20049;-80
2022/10/02 10:26:03;;;;;;;3.17;1.17;;;18.90;99.90;;;;;;5072351;28;20136;-80
2022/10/02 10:28:56;;;;;;;4.22;1.25;;;18.90;99.90;;;;;;5069621;28;20040;-80
2022/10/02 10:31:31;;;;;;;2.67;1.13;;;19.10;99.90;;;;;;5071569;28;20044;-80
2022/10/02 10:34:03;;;;;;;6.60;1.08;;;19.60;99.90;;;;;;5082731;28;20044;-80
2022/10/02 10:40:17;;;;;;;6.13;1.00;;;22.60;97.90;;;;;;5071725;28;20048;-80
2022/10/02 10:43:09;;;;;;;4.45;1.42;;;23.90;93.60;;;;;;5072501;28;20374;-80
2022/10/02 10:45:53;;;;;;;1.85;1.05;;;23.40;93.30;;;;;;5055782;28;20124;-81
2022/10/02 10:48:30;;;;;;;7.78;1.73;;;22.20;94.10;;;;;;5073189;28;20036;-81
2022/10/02 10:51:26;;;;;;;3.25;1.25;;;21.00;95.80;;;;;;5070266;28;20433;-81
2022/10/02 10:53:57;;;;;;;5.22;1.38;;;20.10;96.10;;;;;;5071374;28;20039;-81
2022/10/02 10:56:37;;;;;;;8.38;2.05;;;19.80;98.90;;;;;;5069605;28;20051;-81
2022/10/02 10:59:41;;;;;;;6.97;2.28;;;20.00;98.30;;;;;;5071074;28;20044;-81
2022/10/02 11:02:44;;;;;;;5.55;1.75;;;20.80;97.50;;;;;;5070879;28;20052;-80
2022/10/02 11:05:31;;;;;;;5.60;1.27;;;22.40;96.10;;;;;;5070919;28;20426;-80
2022/10/02 11:08:14;;;;;;;3.05;1.08;;;23.40;93.90;;;;;;5071048;28;20072;-79
2022/10/02 11:11:07;;;;;;;6.15;1.13;;;23.60;93.60;;;;;;5071488;28;20119;-80
2022/10/02 11:13:52;;;;;;;2.83;1.17;;;22.70;93.10;;;;;;5071810;28;20052;-79
2022/10/02 11:16:47;;;;;;;3.90;0.85;;;22.50;94.30;;;;;;5070421;28;20090;-80
2022/10/02 11:19:35;;;;;;;2.72;0.93;;;23.20;95.00;;;;;;5052148;28;20044;-80
2022/10/02 11:22:32;;;;;;;6.22;1.40;;;23.80;91.50;;;;;;5053752;28;20055;-80
2022/10/02 11:25:10;;;;;;;4.55;1.23;;;24.50;92.60;;;;;;4990808;28;20040;-80
2022/10/02 11:27:56;;;;;;;2.25;0.90;;;25.10;92.30;;;;;;5070861;28;20394;-80
2022/10/02 11:30:51;;;;;;;4.63;1.27;;;25.60;91.00;;;;;;5071638;28;20075;-80
2022/10/02 11:33:34;;;;;;;4.88;1.55;;;25.80;88.50;;;;;;5052378;28;20404;-81
2022/10/02 11:36:40;;;;;;;3.30;1.00;;;25.90;89.40;;;;;;5053259;28;20040;-81
2022/10/02 11:39:33;;;;;;;5.47;1.35;;;24.90;90.30;;;;;;5056036;28;20040;-81
2022/10/02 11:42:14;;;;;;;4.68;0.73;;;24.80;90.40;;;;;;5057940;28;20036;-81
2022/10/02 11:45:01;;;;;;;3.97;1.17;;;24.50;88.80;;;;;;5076894;28;20382;-81
2022/10/02 11:47:58;;;;;;;2.42;0.73;;;23.80;91.50;;;;;;5075986;28;20478;-81
2022/10/02 11:50:29;;;;;;;3.15;0.80;;;23.70;91.10;;;;;;5074715;28;20043;-80
2022/10/02 11:53:10;;;;;;;4.28;0.85;;;24.10;91.60;;;;;;5074921;28;20059;-80
2022/10/02 11:55:45;;;;;;;4.70;0.88;;;24.00;90.30;;;;;;5055044;28;20036;-80
2022/10/02 11:58:43;;;;;;;2.15;0.75;;;24.00;89.70;;;;;;5075397;28;20446;-80
2022/10/02 12:01:31;;;;;;;3.05;1.15;;;23.80;90.40;;;;;;5067173;28;20045;-80
2022/10/02 12:04:04;;;;;;;4.15;0.70;;;23.80;89.70;;;;;;5071818;28;20119;-80
2022/10/02 12:06:41;;;;;;;4.82;1.30;;;23.70;90.00;;;;;;5056210;28;20483;-79
2022/10/02 12:09:28;;;;;;;3.70;1.42;;;23.70;89.70;;;;;;5072473;28;20625;-79
2022/10/02 12:12:21;;;;;;;2.70;1.10;;;23.60;90.60;;;;;;5074148;28;20056;-79
2022/10/02 12:14:58;;;;;;;9.63;1.83;;;22.80;90.50;;;;;;5057105;28;20037;-79
2022/10/02 12:17:57;;;;;;;3.53;1.20;;;22.60;91.10;;;;;;5057458;28;20032;-79
2022/10/02 12:26:59;;;;;;;4.43;1.52;;;22.60;90.20;;;;;;5074532;28;20094;-80
2022/10/02 12:30:03;;;;;;;2.97;1.35;;;22.10;92.40;;;;;;5058789;28;20047;-81
2022/10/02 12:32:45;;;;;;;3.40;1.00;;;21.70;91.70;;;;;;5075326;28;20047;-80
2022/10/02 12:35:18;;;;;;;4.03;1.15;;;21.00;92.10;;;;;;5059392;28;20136;-80
2022/10/02 12:38:05;;;;;;;6.65;1.73;;;20.60;93.60;;;;;;5074655;28;20115;-81
2022/10/02 12:41:08;;;;;;;5.00;1.58;;;20.30;93.10;;;;;;5050877;28;20059;-81
2022/10/02 12:44:09;;;;;;;2.67;0.77;;;19.80;94.10;;;;;;5047863;28;20044;-81
2022/10/02 12:46:50;;;;;;;3.03;0.90;;;19.60;95.10;;;;;;5035378;28;20048;-81
2022/10/02 12:49:46;;;;;;;5.93;1.33;;;19.40;95.80;;;;;;5072459;28;20039;-81
2022/10/02 12:52:45;;;;;;;5.40;1.38;;;19.50;96.40;;;;;;5074209;28;20066;-81
2022/10/02 12:55:48;;;;;;;4.13;1.30;;;20.00;96.80;;;;;;5072353;28;20105;-81
2022/10/02 12:58:44;;;;;;;6.20;1.95;;;20.60;96.80;;;;;;5095668;22;20047;-81
2022/10/02 13:01:40;;;;;;;3.90;1.13;;;20.70;94.80;;;;;;5087619;28;20576;-81
2022/10/02 13:04:15;;;;;;;3.95;1.00;;;19.90;94.50;;;;;;5068685;28;20098;-81
2022/10/02 13:06:56;;;;;;;3.38;0.95;;;19.40;96.30;;;;;;5103474;28;20050;-81
2022/10/02 13:09:39;;;;;;;3.00;0.82;;;18.90;96.50;;;;;;5101325;28;20043;-81
2022/10/02 13:12:23;;;;;;;4.22;1.80;;;18.90;98.10;;;;;;5077669;28;20035;-81
2022/10/02 13:14:51;;;;;;;5.35;1.38;;;19.30;98.70;;;;;;5077507;28;20138;-79
2022/10/02 13:17:47;;;;;;;6.55;1.65;;;19.60;98.10;;;;;;5094425;28;20039;-79
2022/10/02 13:20:27;;;;;;;6.55;1.90;;;19.80;95.90;;;;;;5094233;28;20065;-79
2022/10/02 13:23:06;;;;;;;4.80;1.75;;;20.10;96.30;;;;;;5096284;28;20505;-79
2022/10/02 13:25:57;;;;;;;5.93;1.45;;;20.30;95.50;;;;;;5083414;28;20082;-79
2022/10/02 13:28:55;;;;;;;3.28;1.38;;;20.60;94.20;;;;;;5094098;28;20082;-79
2022/10/02 13:31:34;;;;;;;6.20;1.55;;;21.00;94.30;;;;;;5093667;28;20059;-80
2022/10/02 13:33:59;;;;;;;6.32;2.20;;;20.90;93.90;;;;;;5093929;28;20101;-80
2022/10/02 13:36:47;;;;;;;3.47;1.45;;;20.90;93.10;;;;;;5093300;28;20043;-80
2022/10/02 13:39:37;;;;;;;8.15;1.42;;;20.90;94.70;;;;;;5087420;28;20359;-80
2022/10/02 13:42:03;;;;;;;5.63;1.42;;;21.00;95.10;;;;;;5093048;28;20044;-80
2022/10/02 13:44:51;;;;;;;4.05;0.88;;;21.20;94.70;;;;;;5093914;28;20047;-80
2022/10/02 13:47:42;;;;;;;3.90;1.17;;;21.40;95.40;;;;;;5093389;28;20040;-79
2022/10/02 13:50:42;;;;;;;4.57;1.02;;;21.10;94.60;;;;;;5076881;28;20119;-79
2022/10/02 13:53:29;;;;;;;2.92;1.00;;;20.50;95.20;;;;;;5069239;28;20074;-79
2022/10/02 13:56:16;;;;;;;8.65;1.65;;;20.30;95.90;;;;;;5080093;28;20036;-79
2022/10/02 13:59:11;;;;;;;4.43;1.38;;;20.30;97.00;;;;;;5093062;28;20054;-79
2022/10/02 14:01:45;;;;;;;2.05;0.93;;;20.20;96.60;;;;;;5075675;28;20035;-79
2022/10/02 14:04:23;;;;;;;4.20;1.02;;;20.00;97.20;;;;;;5076582;28;20036;-80
2022/10/02 14:07:00;;;;;;;5.82;1.73;;;19.90;97.20;;;;;;5092855;28;20044;-79
2022/10/02 14:09:47;;;;;;;8.90;1.48;;;20.00;97.50;;;;;;5093377;28;20044;-80
2022/10/02 14:12:36;;;;;;;3.47;1.40;;;19.70;95.90;;;;;;5076209;28;20036;-80
2022/10/02 14:15:18;;;;;;;6.22;1.23;;;19.30;96.40;;;;;;5093213;28;20521;-80
2022/10/02 14:17:47;;;;;;;4.28;1.00;;;19.20;96.80;;;;;;5092711;28;20071;-79
2022/10/02 14:20:38;;;;;;;5.68;0.85;;;18.90;97.00;;;;;;5072805;28;20419;-79
2022/10/02 14:23:28;;;;;;;3.38;1.33;;;18.70;97.50;;;;;;5080562;28;20028;-79